METAR AND TAF INFORMATION
METAR FOR KETB
ADDS - METARS form results

(1058 UTC 20 June 2018)
Data provider http://aviationweather.gov/adds/metars/
 
METAR text: KETB 201055Z AUTO 00000KT 10SM OVC007 16/16 A2991 RMK AO2
Conditions at: KETB (WEST BEND , WI, US) observed 1055 UTC 20 June 2018
Temperature: 16.0°C (61°F)
Dewpoint: 16.0°C (61°F) [RH = 100%]
Pressure (altimeter): 29.91 inches Hg (1013.0 mb)
Winds: calm
Visibility: 10 or more miles (16+ km)
Ceiling: 700 feet AGL
Clouds: overcast cloud deck at 700 feet AGL
Weather: automated observation with no human augmentation;
there may or may not be significant weather present at this time

METAR text: KETB 201035Z AUTO 00000KT 10SM SCT007 SCT014 OVC018 16/16 A2991 RMK AO2
Conditions at: KETB (WEST BEND , WI, US) observed 1035 UTC 20 June 2018
Temperature: 16.0°C (61°F)
Dewpoint: 16.0°C (61°F) [RH = 100%]
Pressure (altimeter): 29.91 inches Hg (1013.0 mb)
Winds: calm
Visibility: 10 or more miles (16+ km)
Ceiling: 1800 feet AGL
Clouds: scattered clouds at 700 feet AGL
scattered clouds at 1400 feet AGL
overcast cloud deck at 1800 feet AGL
Weather: automated observation with no human augmentation;
there may or may not be significant weather present at this time

METAR text: KETB 201015Z AUTO 05004KT 10SM OVC018 16/16 A2991 RMK AO2
Conditions at: KETB (WEST BEND , WI, US) observed 1015 UTC 20 June 2018
Temperature: 16.0°C (61°F)
Dewpoint: 16.0°C (61°F) [RH = 100%]
Pressure (altimeter): 29.91 inches Hg (1013.0 mb)
Winds: from the NE (50 degrees) at 5 MPH (4 knots; 2.1 m/s)
Visibility: 10 or more miles (16+ km)
Ceiling: 1800 feet AGL
Clouds: overcast cloud deck at 1800 feet AGL
Weather: automated observation with no human augmentation;
there may or may not be significant weather present at this time

 AIRPORT MAP

 RUNWAY INFORMATION
Runway 06 Runway length 3897 ft Runway width 75 ft
Runway elevation 886 ft Runway displaced threshold 0 ft Runway heading 59
Runway 24 Runway length 3897 ft Runway width 75 ft
Runway elevation 874 ft Runway displaced threshold 0 ft Runway heading 239
Runway 13 Runway length 4494 ft Runway width 75 ft
Runway elevation 882 ft Runway displaced threshold 0 ft Runway heading 127
Runway 31 Runway length 4494 ft Runway width 75 ft
Runway elevation 868 ft Runway displaced threshold 0 ft Runway heading 307

 AIRPORT FREQUENCIES
Type A/D Name MILWAUKEE Frequency 125.35 MHZ
Type AWOS Name AWOS 3 Frequency 120 MHZ
Type CLD Name CLNC DEL Frequency 124.75 MHZ
Type OPS Name ARNG OPS Frequency 40.9 MHZ
Type RDO Name GREEN BAY Frequency 109.8 MHZ
Type UNIC Name CTAF/UNICO Frequency 122.8 MHZ

 AIRPORT NEAR NAVIGATION AIDS



Powered by Virtual Airlines Manager [v2.6.2]